createdAt,value
2023-05-04T00:00:23.272Z,101802.72
2023-05-04T00:03:29.152Z,101799.19
2023-05-04T00:06:34.541Z,101792.59
2023-05-04T00:09:40.309Z,101794.53
2023-05-04T00:12:46.650Z,101799.19
2023-05-04T00:15:51.960Z,101790.47
2023-05-04T00:18:57.216Z,101790.47
2023-05-04T00:22:03.166Z,101790.13
2023-05-04T00:25:08.922Z,101785.47
2023-05-04T00:28:14.798Z,101783.94
2023-05-04T00:31:20.468Z,101780.66
2023-05-04T00:34:26.058Z,101780.06
2023-05-04T00:37:32.214Z,101774.88
2023-05-04T00:40:37.790Z,101764.94
2023-05-04T00:43:43.085Z,101772.19
2023-05-04T00:46:48.756Z,101775.47
2023-05-04T00:49:54.602Z,101768.47
2023-05-04T00:53:06.031Z,101769.97
2023-05-04T00:56:13.009Z,101771.63
2023-05-04T00:59:18.709Z,101774.75
2023-05-04T01:02:24.306Z,101763.69
2023-05-04T01:05:36.701Z,101766.38
2023-05-04T01:08:54.298Z,101765.44
2023-05-04T01:12:11.907Z,101761.81
2023-05-04T01:15:18.502Z,101767.28
2023-05-04T01:18:24.109Z,101770.22
2023-05-04T01:21:30.852Z,101769.50
2023-05-04T01:24:36.487Z,101759.69
2023-05-04T01:27:55.975Z,101772.66
2023-05-04T01:31:06.271Z,101769.50
2023-05-04T01:34:12.833Z,101771.38
2023-05-04T01:37:18.574Z,101774.63
2023-05-04T01:40:24.351Z,101769.13
2023-05-04T01:43:30.125Z,101778.94
2023-05-04T01:46:36.087Z,101769.34
2023-05-04T01:49:41.858Z,101776.78
2023-05-04T01:52:47.848Z,101778.50
2023-05-04T01:55:53.787Z,101768.47
2023-05-04T01:58:58.844Z,101769.63
2023-05-04T02:02:04.358Z,101778.44
2023-05-04T02:05:10.044Z,101773.03
2023-05-04T02:08:15.567Z,101769.91
2023-05-04T02:11:22.014Z,101770.53
2023-05-04T02:14:27.643Z,101768.34
2023-05-04T02:17:33.983Z,101766.72
2023-05-04T02:20:39.221Z,101770.84
2023-05-04T02:23:44.824Z,101772.19
2023-05-04T02:26:50.450Z,101777.88
2023-05-04T02:29:58.657Z,101772.41
2023-05-04T02:33:04.951Z,101769.34
2023-05-04T02:36:10.297Z,101761.78
2023-05-04T02:39:15.966Z,101764.84
2023-05-04T02:42:21.691Z,101771.16
2023-05-04T02:45:27.478Z,101770.13
2023-05-04T02:48:33.536Z,101758.69
2023-05-04T02:51:39.443Z,101762.53
2023-05-04T02:54:45.136Z,101762.63
2023-05-04T02:57:50.720Z,101763.47
2023-05-04T03:00:56.533Z,101759.03
2023-05-04T03:04:01.698Z,101761.59
2023-05-04T03:07:09.574Z,101763.03
2023-05-04T03:10:15.260Z,101762.84
2023-05-04T03:13:20.930Z,101762.28
2023-05-04T03:16:26.464Z,101770.00
2023-05-04T03:19:31.681Z,101773.06
2023-05-04T03:22:37.346Z,101775.88
2023-05-04T03:25:43.747Z,101777.34
2023-05-04T03:28:49.164Z,101784.38
2023-05-04T03:31:54.738Z,101777.13
2023-05-04T03:35:02.006Z,101785.03
2023-05-04T04:39:26.455Z,101798.31
2023-05-04T04:42:32.568Z,101797.56
2023-05-04T04:45:38.446Z,101806.72
2023-05-04T04:48:43.594Z,101805.28
2023-05-04T04:51:49.329Z,101803.47
2023-05-04T04:54:54.960Z,101800.78
2023-05-04T04:58:00.653Z,101802.84
2023-05-04T05:01:08.403Z,101808.03
2023-05-04T05:04:14.618Z,101805.06
2023-05-04T05:07:20.242Z,101811.88
2023-05-04T05:10:26.080Z,101806.59
2023-05-04T05:13:31.957Z,101813.97
2023-05-04T05:16:37.631Z,101806.41
2023-05-04T05:19:44.122Z,101812.41
2023-05-04T05:22:50.156Z,101804.06
2023-05-04T05:25:57.034Z,101803.84
2023-05-04T05:29:03.185Z,101805.22
2023-05-04T05:32:09.050Z,101806.97
2023-05-04T05:35:14.945Z,101803.66
2023-05-04T05:38:20.688Z,101806.09
2023-05-04T05:41:26.375Z,101810.88
2023-05-04T05:44:31.786Z,101809.00
2023-05-04T05:47:37.744Z,101805.00
2023-05-04T05:50:43.562Z,101802.66
2023-05-04T05:53:49.697Z,101813.00
2023-05-04T05:56:55.486Z,101809.56
2023-05-04T06:00:01.292Z,101811.31
2023-05-04T06:03:18.002Z,101807.50
2023-05-04T06:06:23.737Z,101815.13
2023-05-04T06:09:29.289Z,101816.66
2023-05-04T06:12:34.965Z,101811.31
2023-05-04T06:15:40.645Z,101808.91
2023-05-04T06:18:46.595Z,101802.72
2023-05-04T06:21:52.653Z,101806.06
2023-05-04T06:25:02.833Z,101807.16
2023-05-04T06:28:09.430Z,101803.78
2023-05-04T06:31:15.292Z,101805.06
2023-05-04T06:34:21.714Z,101801.13
2023-05-04T06:37:27.450Z,101799.00
2023-05-04T06:40:33.525Z,101797.44
2023-05-04T06:43:42.364Z,101804.97
2023-05-04T06:46:48.042Z,101803.97
2023-05-04T06:49:53.611Z,101809.59
2023-05-04T06:53:17.632Z,101815.22
2023-05-04T06:56:24.109Z,101814.00
2023-05-04T06:59:29.726Z,101815.63
2023-05-04T07:02:36.154Z,101816.94
2023-05-04T07:05:42.909Z,101819.53
2023-05-04T07:08:48.970Z,101827.00
2023-05-04T07:11:54.999Z,101836.66
2023-05-04T07:15:00.742Z,101830.00
2023-05-04T07:18:06.570Z,101823.97
2023-05-04T07:21:26.993Z,101829.16
2023-05-04T07:24:33.921Z,101827.34
2023-05-04T07:27:40.136Z,101825.06
2023-05-04T07:30:45.452Z,101821.50
2023-05-04T07:33:51.448Z,101820.19
2023-05-04T07:36:56.861Z,101816.34
2023-05-04T07:40:06.381Z,101818.66
2023-05-04T07:43:12.146Z,101822.72
2023-05-04T07:46:17.733Z,101808.00
2023-05-04T07:49:23.359Z,101809.84
2023-05-04T07:52:29.189Z,101812.56
2023-05-04T07:55:35.287Z,101814.81
2023-05-04T07:58:41.777Z,101818.41
2023-05-04T08:01:47.531Z,101815.66
2023-05-04T08:04:53.320Z,101810.91
2023-05-04T08:07:58.843Z,101805.19
2023-05-04T08:11:16.296Z,101809.81
2023-05-04T08:14:24.816Z,101810.06
2023-05-04T08:17:30.533Z,101817.94
2023-05-04T08:20:35.863Z,101813.56
2023-05-04T08:23:42.532Z,101819.63
2023-05-04T08:26:55.956Z,101827.19
2023-05-04T08:30:15.721Z,101823.94
2023-05-04T08:38:50.991Z,101830.69
2023-05-04T08:41:57.206Z,101833.97
2023-05-04T08:45:02.689Z,101836.28
2023-05-04T08:48:08.888Z,101833.19
2023-05-04T08:51:14.971Z,101828.28
2023-05-04T08:54:21.757Z,101840.50
2023-05-04T08:57:30.079Z,101835.31
2023-05-04T09:00:37.988Z,101840.75
2023-05-04T09:03:46.333Z,101847.00
2023-05-04T09:06:54.488Z,101835.78
2023-05-04T09:10:00.520Z,101841.28
2023-05-04T09:13:06.009Z,101833.19
2023-05-04T09:16:12.241Z,101833.47
2023-05-04T09:19:21.349Z,101836.47
2023-05-04T09:22:28.871Z,101836.72
2023-05-04T09:25:47.637Z,101830.50
2023-05-04T09:28:53.372Z,101823.72
2023-05-04T09:31:59.422Z,101825.59
2023-05-04T09:35:06.183Z,101819.38
2023-05-04T09:38:12.162Z,101821.28
2023-05-04T09:41:17.763Z,101818.84
2023-05-04T09:44:29.645Z,101820.44
2023-05-04T09:47:39.772Z,101818.84
2023-05-04T09:51:09.667Z,101822.88
2023-05-04T09:54:16.876Z,101819.38
2023-05-04T09:57:23.810Z,101820.16
2023-05-04T10:00:29.238Z,101818.00
2023-05-04T10:03:35.236Z,101816.09
2023-05-04T10:06:43.529Z,101816.00
2023-05-04T10:09:50.620Z,101809.84
2023-05-04T10:12:56.256Z,101810.16
2023-05-04T10:16:25.213Z,101814.97
2023-05-04T10:20:08.185Z,101815.75
2023-05-04T10:23:51.064Z,101804.13
2023-05-04T10:27:03.744Z,101798.13
2023-05-04T10:30:13.569Z,101796.44
2023-05-04T10:33:18.924Z,101799.66
2023-05-04T10:36:24.672Z,101793.06
2023-05-04T10:39:32.690Z,101785.78
2023-05-04T10:42:44.813Z,101780.44
2023-05-04T10:45:50.944Z,101779.44
2023-05-04T10:48:56.559Z,101773.56
2023-05-04T10:52:13.732Z,101776.59
2023-05-04T10:55:22.300Z,101777.41
2023-05-04T10:58:29.504Z,101774.88
2023-05-04T11:01:46.883Z,101771.13
2023-05-04T11:05:06.357Z,101766.72
2023-05-04T11:08:19.727Z,101761.91
2023-05-04T11:11:25.461Z,101760.47
2023-05-04T11:14:31.611Z,101762.94
2023-05-04T11:17:51.300Z,101752.84
2023-05-04T11:20:57.712Z,101753.63
2023-05-04T11:24:03.474Z,101754.88
2023-05-04T11:27:09.462Z,101754.09
2023-05-04T11:30:15.427Z,101760.63
2023-05-04T11:33:21.243Z,101754.78
2023-05-04T11:36:27.486Z,101748.41
2023-05-04T11:39:33.925Z,101746.44
2023-05-04T11:42:40.883Z,101741.13
2023-05-04T11:45:49.048Z,101740.53
2023-05-04T11:48:55.530Z,101741.00
2023-05-04T11:52:10.824Z,101735.44
2023-05-04T11:55:29.799Z,101732.75
2023-05-04T11:58:36.450Z,101725.94
2023-05-04T12:01:42.443Z,101725.53
2023-05-04T12:04:48.482Z,101727.84
2023-05-04T12:07:54.508Z,101728.72
2023-05-04T12:11:17.034Z,101714.56
2023-05-04T12:14:24.761Z,101711.34
2023-05-04T12:17:41.746Z,101710.22
2023-05-04T12:20:48.715Z,101713.78
2023-05-04T12:23:57.234Z,101708.97
2023-05-04T12:27:03.109Z,101709.00
2023-05-04T12:30:09.257Z,101710.09
2023-05-04T12:33:14.464Z,101704.56
2023-05-04T12:36:20.226Z,101695.53
2023-05-04T12:39:26.144Z,101697.34
2023-05-04T12:42:32.219Z,101693.41
2023-05-04T12:45:38.473Z,101696.66
2023-05-04T12:48:44.653Z,101693.19
2023-05-04T12:51:51.493Z,101694.06
2023-05-04T12:54:56.743Z,101692.75
2023-05-04T12:58:03.663Z,101676.53
2023-05-04T13:01:09.357Z,101680.53
2023-05-04T13:04:15.213Z,101683.50
2023-05-04T13:07:20.778Z,101679.94
2023-05-04T13:10:27.308Z,101680.53
2023-05-04T13:13:32.521Z,101671.19
2023-05-04T13:16:37.948Z,101674.22
2023-05-04T13:19:43.486Z,101670.75
2023-05-04T13:22:48.930Z,101657.94
2023-05-04T13:25:55.052Z,101657.69
2023-05-04T13:29:00.718Z,101648.00
2023-05-04T13:32:07.312Z,101640.84
2023-05-04T13:35:13.219Z,101638.22
2023-05-04T13:38:18.995Z,101637.19
2023-05-04T13:41:24.782Z,101630.38
2023-05-04T13:44:30.281Z,101626.09
2023-05-04T13:47:37.410Z,101623.91
2023-05-04T13:50:43.228Z,101616.91
2023-05-04T13:53:48.873Z,101619.06
2023-05-04T13:56:54.557Z,101617.88
2023-05-04T14:00:07.556Z,101610.66
2023-05-04T14:03:17.185Z,101608.22
2023-05-04T14:06:22.230Z,101609.69
2023-05-04T14:09:27.572Z,101614.34
2023-05-04T14:12:33.217Z,101608.88
2023-05-04T14:15:38.711Z,101602.94
2023-05-04T14:18:44.119Z,101601.78
2023-05-04T14:21:49.435Z,101599.63
2023-05-04T14:24:55.307Z,101592.28
2023-05-04T14:28:01.075Z,101593.75
2023-05-04T14:31:09.781Z,101594.47
2023-05-04T14:34:15.682Z,101587.84
2023-05-04T14:37:21.473Z,101592.47
2023-05-04T14:40:26.787Z,101588.47
2023-05-04T14:43:32.583Z,101588.06
2023-05-04T14:46:38.146Z,101588.78
2023-05-04T14:49:43.709Z,101577.13
2023-05-04T14:52:49.004Z,101572.34
2023-05-04T14:55:54.717Z,101570.81
2023-05-04T14:59:01.741Z,101566.84
2023-05-04T15:02:08.453Z,101563.84
2023-05-04T15:05:14.044Z,101560.66
2023-05-04T15:08:19.690Z,101551.66
2023-05-04T15:11:25.156Z,101547.06
2023-05-04T15:14:30.382Z,101546.81
2023-05-04T15:17:36.000Z,101546.41
2023-05-04T15:20:41.738Z,101544.22
2023-05-04T15:23:47.453Z,101541.50
2023-05-04T15:26:53.064Z,101544.34
2023-05-04T15:29:58.820Z,101538.84
2023-05-04T15:33:07.408Z,101536.25
2023-05-04T15:36:13.351Z,101542.88
2023-05-04T15:39:19.140Z,101540.00
2023-05-04T15:42:24.722Z,101536.53
2023-05-04T15:45:30.235Z,101530.44
2023-05-04T15:48:35.606Z,101539.38
2023-05-04T15:51:42.393Z,101536.22
2023-05-04T15:54:48.383Z,101532.31
2023-05-04T15:57:54.419Z,101526.78
2023-05-04T16:01:04.224Z,101526.78
2023-05-04T16:04:09.796Z,101526.69
2023-05-04T16:07:15.603Z,101518.25
2023-05-04T16:10:22.586Z,101531.53
2023-05-04T16:13:28.182Z,101529.13
2023-05-04T16:16:33.721Z,101526.31
2023-05-04T16:19:39.745Z,101529.25
2023-05-04T16:22:45.509Z,101526.69
2023-05-04T16:25:51.036Z,101532.16
2023-05-04T16:28:57.024Z,101524.69
2023-05-04T16:32:03.326Z,101519.41
2023-05-04T16:35:08.998Z,101519.50
2023-05-04T16:38:14.377Z,101517.56
2023-05-04T16:41:20.130Z,101516.13
2023-05-04T16:44:26.106Z,101521.31
2023-05-04T16:47:31.759Z,101509.13
2023-05-04T16:50:37.210Z,101519.34
2023-05-04T16:53:42.356Z,101513.16
2023-05-04T16:56:48.044Z,101507.66
2023-05-04T16:59:54.044Z,101504.28
2023-05-04T17:02:59.412Z,101509.00
2023-05-04T17:06:05.121Z,101515.84
2023-05-04T17:09:10.885Z,101512.53
2023-05-04T17:12:16.831Z,101515.34
2023-05-04T17:15:22.302Z,101515.09
2023-05-04T17:18:29.160Z,101520.69
2023-05-04T17:21:34.580Z,101513.81
2023-05-04T17:24:40.247Z,101514.38
2023-05-04T17:27:46.016Z,101508.22
2023-05-04T17:30:51.779Z,101510.13
2023-05-04T17:33:57.749Z,101508.31
2023-05-04T17:37:04.054Z,101511.28
2023-05-04T17:40:09.986Z,101517.81
2023-05-04T17:43:15.702Z,101519.53
2023-05-04T17:46:21.888Z,101521.00
2023-05-04T17:49:27.059Z,101525.31
2023-05-04T17:52:32.708Z,101522.97
2023-05-04T17:55:38.268Z,101527.59
2023-05-04T17:58:43.657Z,101522.16
2023-05-04T18:01:49.237Z,101534.69
2023-05-04T18:04:55.121Z,101532.00
2023-05-04T18:08:00.613Z,101536.66
2023-05-04T18:11:06.147Z,101545.06
2023-05-04T18:14:11.608Z,101547.81
2023-05-04T18:17:17.488Z,101553.78
2023-05-04T18:20:23.272Z,101556.22
2023-05-04T18:23:29.471Z,101559.78
2023-05-04T18:26:35.004Z,101567.09
2023-05-04T18:29:40.832Z,101571.47
2023-05-04T18:32:46.907Z,101570.41
2023-05-04T18:35:52.954Z,101574.47
2023-05-04T18:39:00.800Z,101572.31
2023-05-04T18:42:06.300Z,101570.13
2023-05-04T18:45:12.221Z,101587.19
2023-05-04T18:48:17.626Z,101589.09
2023-05-04T18:51:23.223Z,101585.03
2023-05-04T18:54:34.887Z,101593.41
2023-05-04T18:57:40.507Z,101596.94
2023-05-04T19:00:46.671Z,101599.91
2023-05-04T19:03:52.312Z,101598.84
2023-05-04T19:06:58.471Z,101606.66
2023-05-04T19:10:05.309Z,101607.47
2023-05-04T19:13:11.496Z,101621.50
2023-05-04T19:16:17.768Z,101621.47
2023-05-04T19:19:23.528Z,101622.56
2023-05-04T19:22:28.770Z,101627.13
2023-05-04T19:25:35.413Z,101634.44
2023-05-04T19:28:42.190Z,101644.13
2023-05-04T19:31:47.750Z,101644.66
2023-05-04T19:34:53.241Z,101655.75
2023-05-04T19:37:58.561Z,101652.75
2023-05-04T19:41:04.858Z,101662.44
2023-05-04T19:44:10.500Z,101655.94
2023-05-04T19:47:16.243Z,101658.91
2023-05-04T19:50:21.924Z,101655.59
2023-05-04T19:53:27.628Z,101659.91
2023-05-04T19:56:33.257Z,101663.16
2023-05-04T19:59:39.357Z,101660.69
2023-05-04T20:02:46.675Z,101667.69
2023-05-04T20:05:52.735Z,101674.69
2023-05-04T20:08:58.120Z,101671.19
2023-05-04T20:12:04.929Z,101667.09
2023-05-04T20:15:11.557Z,101677.84
2023-05-04T20:18:17.717Z,101679.69
2023-05-04T20:21:23.477Z,101679.16
2023-05-04T20:24:29.034Z,101678.06
2023-05-04T20:27:34.694Z,101678.81
2023-05-04T20:30:40.418Z,101676.09
2023-05-04T20:33:45.894Z,101676.59
2023-05-04T20:36:51.195Z,101676.88
2023-05-04T20:39:57.295Z,101669.81
2023-05-04T20:43:03.199Z,101674.63
2023-05-04T20:46:09.394Z,101670.81
2023-05-04T20:49:15.284Z,101664.31
2023-05-04T20:52:20.664Z,101671.03
2023-05-04T20:55:26.249Z,101669.19
2023-05-04T20:58:32.303Z,101668.88
2023-05-04T21:01:37.605Z,101663.75
2023-05-04T21:04:47.705Z,101674.75
2023-05-04T21:07:53.231Z,101677.28
2023-05-04T21:10:59.013Z,101670.03
2023-05-04T21:14:04.735Z,101672.47
2023-05-04T21:17:10.405Z,101664.53
2023-05-04T21:20:16.124Z,101667.44
2023-05-04T21:23:22.154Z,101663.53
2023-05-04T21:26:27.936Z,101659.22
2023-05-04T21:29:33.303Z,101655.34
2023-05-04T21:32:38.764Z,101658.47
2023-05-04T21:35:44.208Z,101647.84
2023-05-04T21:38:49.793Z,101651.56
2023-05-04T21:41:56.288Z,101647.84
2023-05-04T21:45:01.794Z,101658.25
2023-05-04T21:48:07.308Z,101655.28
2023-05-04T21:51:13.236Z,101655.78
2023-05-04T21:54:19.019Z,101666.47
2023-05-04T21:57:26.360Z,101670.31
2023-05-04T22:00:32.174Z,101667.22
2023-05-04T22:03:38.228Z,101675.84
2023-05-04T22:06:44.893Z,101669.00
2023-05-04T22:09:50.615Z,101670.28
2023-05-04T22:12:56.429Z,101672.81
2023-05-04T22:16:02.168Z,101689.00
2023-05-04T22:19:08.135Z,101689.66
2023-05-04T22:22:14.193Z,101694.34
2023-05-04T22:25:20.350Z,101692.44
2023-05-04T22:28:26.436Z,101700.94
2023-05-04T22:31:32.368Z,101699.16
2023-05-04T22:34:37.768Z,101703.97
2023-05-04T22:37:43.181Z,101706.28
2023-05-04T22:40:50.500Z,101701.22
2023-05-04T22:43:56.420Z,101703.56
2023-05-04T22:47:02.190Z,101704.81
2023-05-04T22:50:11.795Z,101706.03
2023-05-04T22:53:17.505Z,101708.22
2023-05-04T22:56:23.349Z,101703.00
2023-05-04T22:59:29.464Z,101702.53
2023-05-04T23:02:36.130Z,101703.19
2023-05-04T23:05:42.567Z,101703.34
2023-05-04T23:08:48.727Z,101703.25
2023-05-04T23:11:54.676Z,101699.59
2023-05-04T23:15:00.573Z,101708.72
2023-05-04T23:18:06.598Z,101703.06
2023-05-04T23:21:12.240Z,101701.94
2023-05-04T23:24:18.021Z,101698.59
2023-05-04T23:27:23.827Z,101699.25
2023-05-04T23:30:29.733Z,101702.06
2023-05-04T23:33:35.398Z,101696.22
2023-05-04T23:36:41.585Z,101688.50
2023-05-04T23:39:47.607Z,101686.69
2023-05-04T23:42:53.554Z,101687.19
2023-05-04T23:46:03.899Z,101684.16
2023-05-04T23:49:10.153Z,101680.28
2023-05-04T23:52:16.038Z,101689.97
2023-05-04T23:55:22.492Z,101686.59
2023-05-04T23:58:28.964Z,101692.47
